Time;durP1;ratioP1;P1;durP2;ratioP2;P2;SDS_P1;SDS_P2;PMS_P1;PMS_P2;Temp;Humidity;BMP_temperature;BMP_pressure;BME280_temperature;BME280_humidity;BME280_pressure;Samples;Min_cycle;Max_cycle;Signal;HPM_P1;HPM_P2
2023/10/04 00:01:01;;;;;;;1999.90;999.90;;;;;;;15.43;67.84;100725.47;5068852;28;20310;-93
2023/10/04 00:03:27;;;;;;;1999.90;999.90;;;;;;;15.70;67.61;100727.91;5065035;28;20035;-93
2023/10/04 00:05:52;;;;;;;1999.90;999.90;;;;;;;15.75;66.51;100733.44;5064562;28;20085;-93
2023/10/04 00:08:18;;;;;;;1999.90;999.90;;;;;;;15.66;67.53;100737.84;5045308;28;20082;-93
2023/10/04 00:10:44;;;;;;;1999.90;999.90;;;;;;;15.44;67.44;100740.84;5064416;28;20074;-92
2023/10/04 00:13:12;;;;;;;1999.90;999.90;;;;;;;15.47;68.00;100751.28;5064126;28;20064;-92
2023/10/04 00:15:38;;;;;;;1999.90;999.90;;;;;;;15.43;68.27;100745.53;5064312;28;20040;-93
2023/10/04 00:18:04;;;;;;;1999.90;999.90;;;;;;;15.33;68.13;100748.25;5064163;28;20787;-92
2023/10/04 00:20:33;;;;;;;1999.90;999.90;;;;;;;15.70;67.89;100747.16;5064100;28;20055;-93
2023/10/04 00:23:00;;;;;;;1999.90;999.90;;;;;;;15.49;67.47;100755.41;5045998;28;20116;-93
2023/10/04 00:25:25;;;;;;;1999.90;999.90;;;;;;;15.46;67.88;100763.41;5063912;28;20044;-92
2023/10/04 00:27:56;;;;;;;1999.90;999.90;;;;;;;15.54;68.00;100762.03;5046835;28;20040;-92
2023/10/04 00:30:22;;;;;;;1999.90;999.90;;;;;;;15.67;67.24;100753.22;5047003;28;20033;-92
2023/10/04 00:32:48;;;;;;;1999.90;999.90;;;;;;;15.56;67.63;100757.06;5064199;28;20071;-92
2023/10/04 00:35:17;;;;;;;1999.90;999.90;;;;;;;15.56;68.16;100765.31;5063770;28;20067;-92
2023/10/04 00:37:45;;;;;;;1999.90;999.90;;;;;;;15.52;67.82;100756.78;5064650;28;20021;-92
2023/10/04 00:40:18;;;;;;;1999.90;999.90;;;;;;;15.80;67.54;100764.75;5046568;28;20037;-93
2023/10/04 00:42:47;;;;;;;1999.90;999.90;;;;;;;15.61;67.67;100759.81;5063404;28;20119;-93
2023/10/04 00:45:15;;;;;;;1999.90;999.90;;;;;;;15.40;68.30;100768.88;5063650;28;20036;-93
2023/10/04 00:47:44;;;;;;;1999.90;999.90;;;;;;;15.49;68.22;100760.91;5064453;28;20041;-94
2023/10/04 00:50:15;;;;;;;1999.90;999.90;;;;;;;15.32;68.28;100761.16;5063660;28;20040;-93
2023/10/04 00:52:54;;;;;;;1999.90;999.90;;;;;;;14.97;70.21;100755.31;5063379;28;20040;-93
2023/10/04 00:55:21;;;;;;;1999.90;999.90;;;;;;;15.32;69.27;100765.81;5063685;28;20033;-93
2023/10/04 00:57:49;;;;;;;1999.90;999.90;;;;;;;15.37;68.78;100771.34;5063326;28;20066;-93
2023/10/04 01:00:17;;;;;;;1999.90;999.90;;;;;;;15.29;68.91;100765.28;5063331;28;20036;-93
2023/10/04 01:02:42;;;;;;;1999.90;999.90;;;;;;;15.48;68.73;100767.50;5063844;28;20087;-93
2023/10/04 01:05:08;;;;;;;1999.90;999.90;;;;;;;15.56;68.46;100770.81;5045674;28;20073;-94
2023/10/04 01:07:38;;;;;;;1999.90;999.90;;;;;;;15.58;68.02;100771.38;5063874;28;20531;-93
2023/10/04 01:10:14;;;;;;;1999.90;999.90;;;;;;;15.42;68.88;100771.34;5063784;28;20032;-93
2023/10/04 01:12:40;;;;;;;1999.90;999.90;;;;;;;15.21;69.07;100770.50;5062986;28;20070;-93
2023/10/04 01:15:19;;;;;;;1999.90;999.90;;;;;;;15.26;69.64;100776.81;5063451;28;20094;-93
2023/10/04 01:17:45;;;;;;;1999.90;999.90;;;;;;;15.19;69.88;100776.25;5063539;28;20052;-93
2023/10/04 01:20:12;;;;;;;1999.90;999.90;;;;;;;15.07;69.74;100775.69;5066323;28;20040;-93
2023/10/04 01:22:38;;;;;;;1999.90;999.90;;;;;;;15.25;69.66;100772.44;5067215;28;20106;-93
2023/10/04 01:25:04;;;;;;;1999.90;999.90;;;;;;;15.07;69.99;100775.69;5066841;28;20039;-92
2023/10/04 01:27:31;;;;;;;1999.90;999.90;;;;;;;15.40;68.95;100765.28;5067683;28;20032;-93
2023/10/04 01:29:56;;;;;;;1999.90;999.90;;;;;;;15.25;69.52;100764.19;5067246;28;20028;-94
2023/10/04 01:32:23;;;;;;;1999.90;999.90;;;;;;;15.11;69.44;100771.28;5067501;28;20036;-93
2023/10/04 01:34:48;;;;;;;1999.90;999.90;;;;;;;15.24;69.31;100781.75;5048985;28;20036;-93
2023/10/04 01:37:14;;;;;;;1999.90;999.90;;;;;;;14.85;70.76;100779.47;5067244;28;20044;-93
2023/10/04 01:39:44;;;;;;;1999.90;999.90;;;;;;;15.12;70.79;100778.44;5066693;28;21019;-93
2023/10/04 01:42:11;;;;;;;1999.90;999.90;;;;;;;15.35;69.03;100777.13;5067115;28;20090;-92
2023/10/04 01:44:36;;;;;;;1999.90;999.90;;;;;;;14.98;70.29;100781.69;5067061;28;20025;-93
2023/10/04 01:47:02;;;;;;;1999.90;999.90;;;;;;;15.12;69.80;100772.94;5048453;28;20040;-92
2023/10/04 01:49:27;;;;;;;1999.90;999.90;;;;;;;14.89;70.67;100780.56;5066877;28;20039;-92
2023/10/04 01:51:53;;;;;;;1999.90;999.90;;;;;;;14.90;71.04;100784.97;5066310;28;20412;-92
2023/10/04 01:54:18;;;;;;;1116.93;515.35;;;;;;;14.74;71.15;100778.56;5065973;28;20430;-92
2023/10/04 01:56:44;;;;;;;1999.90;999.90;;;;;;;14.79;71.32;100781.31;5066609;28;20037;-92
2023/10/04 01:59:09;;;;;;;1999.90;999.90;;;;;;;15.05;70.38;100785.00;5066560;28;20041;-92
2023/10/04 02:01:34;;;;;;;1999.90;999.90;;;;;;;15.16;70.28;100779.53;5066588;28;20326;-92
2023/10/04 02:04:04;;;;;;;1999.90;999.90;;;;;;;14.92;70.29;100780.03;5066192;28;20071;-92
2023/10/04 02:06:30;;;;;;;1999.90;999.90;;;;;;;14.91;71.02;100786.59;5066887;28;20265;-92
2023/10/04 02:08:56;;;;;;;1999.90;999.90;;;;;;;14.75;71.67;100774.69;5066339;28;20048;-92
2023/10/04 02:11:22;;;;;;;1999.90;999.90;;;;;;;15.12;70.17;100781.16;5048234;28;20044;-92
2023/10/04 02:13:47;;;;;;;1999.90;999.90;;;;;;;14.76;71.03;100779.94;5065628;28;20116;-93
2023/10/04 02:16:18;;;;;;;1999.90;999.90;;;;;;;14.95;71.14;100776.72;5048494;28;20147;-92
2023/10/04 02:18:44;;;;;;;1999.90;999.90;;;;;;;14.38;73.23;100777.28;5052614;28;20028;-92
2023/10/04 02:21:10;;;;;;;1999.90;999.90;;;;;;;14.66;72.48;100775.25;5049291;28;20040;-92
2023/10/04 02:23:37;;;;;;;1999.90;999.90;;;;;;;14.90;71.73;100771.22;5069996;28;20050;-92
2023/10/04 02:26:05;;;;;;;1999.90;999.90;;;;;;;15.04;71.03;100782.53;5069589;28;20116;-93
2023/10/04 02:28:33;;;;;;;1999.90;999.90;;;;;;;14.73;72.00;100774.97;5067123;28;20440;-92
2023/10/04 02:30:59;;;;;;;1999.90;999.90;;;;;;;14.71;72.23;100769.75;5048060;28;20033;-92
2023/10/04 02:33:32;;;;;;;1999.90;999.90;;;;;;;15.16;70.79;100779.53;5064871;28;20040;-92
2023/10/04 02:35:57;;;;;;;1999.90;999.90;;;;;;;14.84;71.19;100777.78;5066676;28;20381;-92
2023/10/04 02:38:33;;;;;;;1999.90;999.90;;;;;;;14.93;71.21;100781.66;5065763;28;20108;-92
2023/10/04 02:40:59;;;;;;;1999.90;999.90;;;;;;;15.07;70.97;100782.00;5065576;28;20496;-92
2023/10/04 02:43:26;;;;;;;1999.90;999.90;;;;;;;15.26;70.41;100785.06;5047594;28;20833;-92
2023/10/04 02:45:52;;;;;;;1999.90;999.90;;;;;;;15.28;70.63;100788.34;5065889;28;20040;-93
2023/10/04 02:48:23;;;;;;;1999.90;999.90;;;;;;;15.44;70.03;100793.88;5047720;28;20522;-92
2023/10/04 02:50:49;;;;;;;1999.90;999.90;;;;;;;15.24;70.03;100781.75;5067840;28;20488;-96
2023/10/04 02:53:24;;;;;;;1999.90;999.90;;;;;;;15.04;71.12;100783.34;5069302;28;20480;-96
2023/10/04 02:55:54;;;;;;;1999.90;999.90;;;;;;;15.26;70.58;100785.06;5070496;28;20055;-96
2023/10/04 02:58:19;;;;;;;1999.90;999.90;;;;;;;15.30;70.72;100785.34;5069709;28;20035;-96
2023/10/04 03:00:45;;;;;;;1999.90;999.90;;;;;;;15.24;71.06;100783.66;5071358;28;20328;-96
2023/10/04 03:03:14;;;;;;;1999.90;999.90;;;;;;;15.15;71.05;100788.88;5069094;28;20488;-96
2023/10/04 03:05:41;;;;;;;1999.90;999.90;;;;;;;15.32;70.32;100798.78;5071740;28;20028;-96
2023/10/04 03:08:08;;;;;;;1999.90;999.90;;;;;;;15.43;70.13;100785.91;5070129;28;20127;-96
2023/10/04 03:10:34;;;;;;;1999.90;999.90;;;;;;;15.12;70.83;100778.44;5071528;28;20067;-96
2023/10/04 03:13:01;;;;;;;1999.90;999.90;;;;;;;15.17;71.44;100787.50;5069641;28;20059;-96
2023/10/04 03:15:28;;;;;;;1999.90;999.90;;;;;;;15.26;71.17;100785.06;5069507;28;20035;-96
2023/10/04 03:17:59;;;;;;;1999.90;999.90;;;;;;;14.98;72.51;100794.59;5071329;28;20063;-96
2023/10/04 03:20:25;;;;;;;1999.90;999.90;;;;;;;14.77;73.25;100783.50;5070307;28;20029;-96
2023/10/04 03:22:55;;;;;;;1999.90;999.90;;;;;;;14.58;73.77;100793.00;5069709;28;20033;-96
2023/10/04 03:25:21;;;;;;;1999.90;999.90;;;;;;;15.09;72.14;100785.31;5069325;28;20074;-96
2023/10/04 03:27:46;;;;;;;1999.90;999.90;;;;;;;15.26;71.66;100790.53;5067586;28;20484;-96
2023/10/04 03:30:14;;;;;;;1999.90;999.90;;;;;;;14.92;72.42;100796.50;5069133;28;20123;-96
2023/10/04 03:32:44;;;;;;;1999.90;999.90;;;;;;;15.10;72.19;100786.09;5068314;28;20070;-96
2023/10/04 03:35:14;;;;;;;1999.90;999.90;;;;;;;15.18;71.77;100774.59;5051160;28;20056;-96
2023/10/04 03:37:49;;;;;;;1999.90;999.90;;;;;;;15.08;72.11;100788.28;5068986;28;20487;-96
2023/10/04 03:40:14;;;;;;;1999.90;999.90;;;;;;;14.72;73.69;100792.56;5069393;28;20032;-96
2023/10/04 03:42:41;;;;;;;1999.90;999.90;;;;;;;15.16;72.20;100790.53;5067954;28;20044;-96
2023/10/04 03:45:10;;;;;;;1999.90;999.90;;;;;;;15.07;72.28;100786.66;5069587;28;20035;-96
2023/10/04 03:47:36;;;;;;;1999.90;999.90;;;;;;;14.91;72.72;100792.09;5068042;28;20712;-96
2023/10/04 03:50:01;;;;;;;1999.90;999.90;;;;;;;15.09;72.47;100795.47;5067897;28;20040;-96
2023/10/04 03:52:28;;;;;;;1999.90;999.90;;;;;;;14.96;72.95;100800.34;5050167;28;20046;-95
2023/10/04 03:54:54;;;;;;;1999.90;999.90;;;;;;;15.20;72.24;100807.28;5050465;28;20020;-96
2023/10/04 03:57:20;;;;;;;1999.90;999.90;;;;;;;15.03;72.49;100809.16;5067572;28;20048;-96
2023/10/04 03:59:45;;;;;;;1999.90;999.90;;;;;;;14.99;72.59;100813.53;5067660;28;20502;-96
2023/10/04 04:02:11;;;;;;;1999.90;999.90;;;;;;;15.09;72.26;100800.94;5063725;28;20044;-86
2023/10/04 04:04:36;;;;;;;1999.90;999.90;;;;;;;15.26;72.37;100801.53;5063724;28;20037;-85
2023/10/04 04:07:02;;;;;;;1999.90;999.90;;;;;;;15.14;71.78;100803.69;5045747;28;20055;-86
2023/10/04 04:09:28;;;;;;;1999.90;999.90;;;;;;;15.26;72.07;100811.69;5063687;28;20028;-86
2023/10/04 04:11:53;;;;;;;1999.90;999.90;;;;;;;15.36;71.34;100799.91;5064146;28;20031;-86
2023/10/04 04:14:19;;;;;;;1999.90;999.90;;;;;;;15.17;71.84;100803.19;5063612;28;20024;-86
2023/10/04 04:16:46;;;;;;;1999.90;999.90;;;;;;;14.96;72.87;100796.78;5045861;28;20036;-86
2023/10/04 04:19:14;;;;;;;1999.90;999.90;;;;;;;15.15;72.68;100800.69;5064178;28;20033;-86
2023/10/04 04:21:39;;;;;;;1999.90;999.90;;;;;;;15.33;71.52;100804.03;5063453;28;20205;-86
2023/10/04 04:24:05;;;;;;;1999.90;999.90;;;;;;;14.69;73.97;100798.56;5062836;28;20040;-86
2023/10/04 04:26:30;;;;;;;1999.90;999.90;;;;;;;14.98;72.85;100802.81;5046003;28;20115;-86
2023/10/04 04:28:55;;;;;;;1999.90;999.90;;;;;;;15.08;72.72;100805.59;5063933;28;20904;-86
2023/10/04 04:31:20;;;;;;;1999.90;999.90;;;;;;;15.01;72.38;100803.09;5046296;28;20032;-86
2023/10/04 04:33:46;;;;;;;1999.90;999.90;;;;;;;15.09;72.94;100806.44;5063904;28;20307;-85
2023/10/04 04:36:19;;;;;;;1999.90;999.90;;;;;;;15.27;72.11;100819.69;5063759;28;20094;-86
2023/10/04 04:38:47;;;;;;;1999.90;999.90;;;;;;;14.91;73.06;100816.78;5045491;28;20127;-86
2023/10/04 04:41:13;;;;;;;1999.90;999.90;;;;;;;15.18;72.33;100813.03;5044873;28;20277;-86
2023/10/04 04:43:38;;;;;;;1999.90;999.90;;;;;;;14.95;72.59;100806.94;5045490;28;20427;-86
2023/10/04 04:46:15;;;;;;;1999.90;999.90;;;;;;;14.82;73.38;100811.81;5064650;28;20034;-86
2023/10/04 04:48:41;;;;;;;1999.90;999.90;;;;;;;15.26;71.84;100806.19;5066313;28;20034;-86
2023/10/04 04:53:35;;;;;;;1999.90;999.90;;;;;;;15.15;72.24;100805.38;5068153;28;20109;-86
2023/10/04 04:56:01;;;;;;;1999.90;999.90;;;;;;;14.87;72.84;100799.22;5050578;28;20044;-85
2023/10/04 04:58:28;;;;;;;1999.90;999.90;;;;;;;15.29;72.00;100811.97;5066937;28;20474;-86
2023/10/04 05:01:00;;;;;;;1999.90;999.90;;;;;;;15.48;70.96;100814.22;5067607;28;20037;-86
2023/10/04 05:03:26;;;;;;;1999.90;999.90;;;;;;;15.12;71.90;100816.88;5067261;28;20071;-86
2023/10/04 05:05:56;;;;;;;1999.90;999.90;;;;;;;15.39;71.67;100808.44;5067326;28;20028;-86
2023/10/04 05:08:24;;;;;;;1999.90;999.90;;;;;;;15.66;70.69;100809.31;5067135;28;20056;-86
2023/10/04 05:10:50;;;;;;;1999.90;999.90;;;;;;;15.49;71.03;100804.06;5067939;28;20162;-87
2023/10/04 05:13:18;;;;;;;1999.90;999.90;;;;;;;15.02;72.29;100803.94;5067044;28;20127;-87
2023/10/04 05:15:47;;;;;;;1999.90;999.90;;;;;;;14.64;73.55;100807.63;5066633;28;20509;-87
2023/10/04 05:18:17;;;;;;;1999.90;999.90;;;;;;;14.68;73.74;100802.41;5067207;28;20043;-87
2023/10/04 05:20:53;;;;;;;1999.90;999.90;;;;;;;14.99;72.67;100808.03;5067221;28;20039;-87
2023/10/04 05:23:19;;;;;;;1999.90;999.90;;;;;;;14.75;73.52;100813.13;5067357;28;20045;-87
2023/10/04 05:25:45;;;;;;;1999.90;999.90;;;;;;;14.85;73.46;100812.41;5066808;28;20031;-87
2023/10/04 05:28:13;;;;;;;1999.90;999.90;;;;;;;14.92;72.95;100810.22;5067207;28;20032;-87
2023/10/04 05:30:44;;;;;;;1999.90;999.90;;;;;;;14.79;73.05;100815.06;5049434;28;20040;-87
2023/10/04 05:33:15;;;;;;;1999.90;999.90;;;;;;;14.65;73.89;100814.75;5066407;28;20039;-87
2023/10/04 05:35:42;;;;;;;1999.90;999.90;;;;;;;14.76;73.70;100820.28;5066901;28;20085;-87
2023/10/04 05:38:08;;;;;;;1999.90;999.90;;;;;;;14.83;73.39;100820.88;5048711;28;20033;-87
2023/10/04 05:40:38;;;;;;;1999.90;999.90;;;;;;;14.71;73.88;100818.31;5067066;28;20051;-87
2023/10/04 05:43:04;;;;;;;1999.90;999.90;;;;;;;15.16;72.06;100812.50;5066055;28;20465;-87
2023/10/04 05:45:29;;;;;;;1999.90;999.90;;;;;;;14.86;73.15;100814.03;5067243;28;20092;-87
2023/10/04 05:47:55;;;;;;;1999.90;999.90;;;;;;;14.58;74.03;100814.97;5067196;28;20131;-87
2023/10/04 05:50:21;;;;;;;1999.90;999.90;;;;;;;14.84;72.81;100811.56;5066381;28;20036;-87
2023/10/04 05:52:49;;;;;;;1999.90;999.90;;;;;;;14.80;72.80;100824.16;5066470;28;20040;-87
2023/10/04 05:55:16;;;;;;;1999.90;999.90;;;;;;;14.77;73.64;100816.44;5066439;28;20036;-87
2023/10/04 05:57:45;;;;;;;1999.90;999.90;;;;;;;14.77;72.77;100813.69;5066371;28;20043;-87
2023/10/04 06:00:33;;;;;;;1999.90;999.90;;;;;;;14.84;73.45;100821.72;5065592;28;20043;-87
2023/10/04 06:03:04;;;;;;;1999.90;999.90;;;;;;;14.79;73.24;100826.06;5066312;28;20111;-87
2023/10/04 06:05:32;;;;;;;1999.90;999.90;;;;;;;14.87;73.18;100827.50;5065470;28;20036;-87
2023/10/04 06:07:59;;;;;;;1999.90;999.90;;;;;;;14.90;72.99;100834.38;5066271;28;20131;-87
2023/10/04 06:10:25;;;;;;;1999.90;999.90;;;;;;;14.78;73.51;100840.06;5065892;28;20124;-87
2023/10/04 06:12:53;;;;;;;1999.90;999.90;;;;;;;14.94;73.00;100854.72;5065854;28;20407;-87
2023/10/04 06:15:19;;;;;;;1999.90;999.90;;;;;;;14.71;73.88;100862.25;5065619;28;20032;-87
2023/10/04 06:17:46;;;;;;;1999.90;999.90;;;;;;;15.07;72.63;100853.41;5066056;28;20062;-87
2023/10/04 06:20:25;;;;;;;1999.90;999.90;;;;;;;14.75;72.88;100866.09;5067054;28;20412;-96
2023/10/04 06:22:59;;;;;;;1999.90;999.90;;;;;;;14.86;73.09;100871.69;5070301;28;20029;-96
2023/10/04 06:25:25;;;;;;;1999.90;999.90;;;;;;;14.87;72.75;100876.09;5070976;28;20039;-96
2023/10/04 06:27:52;;;;;;;1999.90;999.90;;;;;;;14.55;74.44;100875.88;5070774;28;20037;-96
2023/10/04 06:30:22;;;;;;;1999.90;999.90;;;;;;;14.62;73.51;100880.31;5053867;28;20475;-96
2023/10/04 06:32:52;;;;;;;1999.90;999.90;;;;;;;14.85;73.69;100900.25;5070546;28;20036;-96
2023/10/04 06:35:22;;;;;;;1999.90;999.90;;;;;;;14.64;73.58;100884.44;5053186;28;20374;-96
2023/10/04 06:37:49;;;;;;;1999.90;999.90;;;;;;;14.73;73.86;100890.25;5073312;28;20024;-96
2023/10/04 06:40:15;;;;;;;1999.90;999.90;;;;;;;14.85;73.67;100895.56;5070789;28;20127;-96
2023/10/04 06:42:45;;;;;;;1999.90;999.90;;;;;;;14.89;73.45;100893.13;5053776;28;20395;-96
2023/10/04 06:45:14;;;;;;;1999.90;999.90;;;;;;;14.66;73.80;100892.41;5071120;28;20475;-96
2023/10/04 06:47:43;;;;;;;1999.90;999.90;;;;;;;14.97;73.49;100892.59;5070490;28;20040;-96
2023/10/04 06:50:13;;;;;;;1999.90;999.90;;;;;;;14.88;73.73;100891.47;5052153;28;20047;-96
2023/10/04 06:52:38;;;;;;;1999.90;999.90;;;;;;;14.89;73.63;100901.38;5069822;28;20054;-96
2023/10/04 06:55:07;;;;;;;1999.90;999.90;;;;;;;14.63;74.54;100895.66;5073151;28;20028;-96
2023/10/04 06:57:33;;;;;;;1999.90;999.90;;;;;;;14.52;74.94;100903.03;5056678;28;20034;-96
2023/10/04 06:59:59;;;;;;;1999.90;999.90;;;;;;;14.68;74.71;100909.44;5073242;28;20084;-96
2023/10/04 07:02:24;;;;;;;1999.90;999.90;;;;;;;14.69;74.67;100924.81;5071682;28;20040;-96
2023/10/04 07:04:50;;;;;;;1999.90;999.90;;;;;;;14.87;74.12;100925.50;5073093;28;20036;-96
2023/10/04 07:07:15;;;;;;;1999.90;999.90;;;;;;;14.84;73.88;100923.28;5055812;28;21530;-96
2023/10/04 07:09:41;;;;;;;1999.90;999.90;;;;;;;14.93;74.15;100929.91;5055198;28;20125;-96
2023/10/04 07:12:07;;;;;;;1999.90;999.90;;;;;;;14.89;74.47;100928.81;5074739;28;20029;-96
2023/10/04 07:14:35;;;;;;;1999.90;999.90;;;;;;;15.28;73.63;100938.59;5089309;28;20040;-96
2023/10/04 07:17:20;;;;;;;1999.90;999.90;;;;;;;14.92;74.68;100926.38;5091795;28;20025;-96
2023/10/04 07:19:46;;;;;;;1999.90;999.90;;;;;;;15.17;73.62;100935.81;5071124;28;20115;-96
2023/10/04 07:22:11;;;;;;;1999.90;999.90;;;;;;;15.20;73.59;100939.94;5092123;28;20035;-96
2023/10/04 07:58:14;;;;;;;1999.90;999.90;;;;;;;15.29;73.67;100959.50;5077700;22;20064;-90
2023/10/04 08:00:41;;;;;;;1999.90;999.90;;;;;;;15.49;72.72;100964.25;5042585;28;20089;-90
2023/10/04 08:03:06;;;;;;;1999.90;999.90;;;;;;;15.32;73.30;100964.47;5041388;28;20047;-90
2023/10/04 08:05:32;;;;;;;1999.90;999.90;;;;;;;15.22;74.10;100967.97;5042095;28;20032;-89
2023/10/04 08:08:00;;;;;;;1999.90;999.90;;;;;;;15.40;74.17;100969.44;5041132;28;20036;-90
2023/10/04 08:10:29;;;;;;;1999.90;999.90;;;;;;;15.63;72.73;100956.34;5059060;28;20036;-89
2023/10/04 08:12:59;;;;;;;1999.90;999.90;;;;;;;15.47;73.36;100960.13;5041265;28;20064;-90
2023/10/04 08:15:25;;;;;;;1999.90;999.90;;;;;;;15.50;73.42;100957.66;5038051;28;20775;-90
2023/10/04 08:17:52;;;;;;;1999.90;999.90;;;;;;;15.44;73.27;100955.97;5040712;28;20025;-89
2023/10/04 08:20:19;;;;;;;1999.90;999.90;;;;;;;15.82;72.51;100960.50;5039871;28;20065;-90
2023/10/04 08:22:45;;;;;;;1999.90;999.90;;;;;;;15.45;73.13;100967.81;5038230;28;20839;-89
2023/10/04 08:25:19;;;;;;;1999.90;999.90;;;;;;;15.63;72.40;100972.00;5039192;28;20116;-90
2023/10/04 08:27:44;;;;;;;;;;;;;;;15.52;72.56;100969.22;5041201;28;20029;-89
2023/10/04 08:30:12;;;;;;;1999.90;999.90;;;;;;;15.55;73.24;100967.03;5046117;28;20397;-89
2023/10/04 08:32:40;;;;;;;1999.90;999.90;;;;;;;15.79;72.49;100967.38;5043617;28;20033;-89
2023/10/04 08:35:06;;;;;;;1999.90;999.90;;;;;;;16.10;71.81;100963.91;5043983;28;20033;-89
2023/10/04 08:37:31;;;;;;;1999.90;999.90;;;;;;;15.98;71.90;100958.63;5046344;28;20823;-89
2023/10/04 08:39:56;;;;;;;1999.90;999.90;;;;;;;15.76;72.52;100957.75;5045225;28;20049;-93
2023/10/04 08:42:25;;;;;;;1999.90;999.90;;;;;;;16.04;71.41;100968.56;5026981;28;20104;-95
2023/10/04 08:44:51;;;;;;;1999.90;999.90;;;;;;;15.95;71.61;100972.91;5047666;28;20033;-95
2023/10/04 08:47:16;;;;;;;1999.90;999.90;;;;;;;16.18;71.17;100974.38;5042697;28;20037;-95
2023/10/04 08:49:50;;;;;;;1999.90;999.90;;;;;;;16.17;70.76;100967.19;5046105;28;20040;-94
2023/10/04 08:52:45;;;;;;;;;;;;;;;15.78;71.46;100959.41;5047755;28;20021;-95
2023/10/04 08:55:16;;;;;;;1999.90;999.90;;;;;;;15.81;71.77;100964.34;5025626;28;20836;-95
2023/10/04 08:57:43;;;;;;;1999.90;999.90;;;;;;;15.76;72.23;100965.97;5045057;28;20501;-95
2023/10/04 09:00:23;;;;;;;1999.90;999.90;;;;;;;15.90;72.26;100972.91;5044091;28;20156;-94
2023/10/04 09:02:50;;;;;;;1999.90;999.90;;;;;;;15.96;71.79;100966.31;5045804;28;20048;-95
2023/10/04 09:05:17;;;;;;;1999.90;999.90;;;;;;;15.93;72.13;100967.69;5021400;28;20037;-95
2023/10/04 09:07:43;;;;;;;1999.90;999.90;;;;;;;16.25;71.03;100974.06;5041754;28;20035;-94
2023/10/04 09:10:15;;;;;;;1999.90;999.90;;;;;;;16.28;71.11;100978.22;5044051;28;20028;-94
2023/10/04 09:12:43;;;;;;;1999.90;999.90;;;;;;;16.42;71.31;100968.31;5046552;28;20041;-95
2023/10/04 09:15:13;;;;;;;1999.90;999.90;;;;;;;16.64;70.36;100975.47;5028505;28;20067;-95
2023/10/04 09:17:55;;;;;;;1999.90;999.90;;;;;;;16.15;71.24;100972.16;5045017;28;20141;-95
2023/10/04 09:20:24;;;;;;;1999.90;999.90;;;;;;;16.24;70.63;100974.34;5029479;28;20040;-95
2023/10/04 09:22:50;;;;;;;1999.90;999.90;;;;;;;16.50;70.73;100971.59;5043520;28;20136;-95
2023/10/04 09:25:16;;;;;;;1999.90;999.90;;;;;;;16.43;70.60;100980.16;5044778;28;20108;-95
2023/10/04 09:27:53;;;;;;;1999.90;999.90;;;;;;;16.71;70.65;100974.34;5024840;28;20135;-96
2023/10/04 09:30:26;;;;;;;1999.90;999.90;;;;;;;16.44;70.01;100970.78;5042533;28;20033;-95
2023/10/04 09:32:52;;;;;;;1999.90;999.90;;;;;;;16.57;70.29;100970.25;5045033;28;20059;-95
2023/10/04 09:35:19;;;;;;;1999.90;999.90;;;;;;;16.60;70.18;100979.88;5027385;28;20036;-95
2023/10/04 09:37:45;;;;;;;1999.90;999.90;;;;;;;16.61;69.98;100970.53;5044327;28;20444;-95
2023/10/04 09:40:12;;;;;;;1999.90;999.90;;;;;;;16.67;70.32;100974.09;5051457;28;20052;-95
2023/10/04 09:42:51;;;;;;;1999.90;999.90;;;;;;;16.80;70.27;100975.47;5029123;28;20875;-95
2023/10/04 09:45:16;;;;;;;1999.90;999.90;;;;;;;16.85;70.01;100971.88;5041445;28;20040;-96
2023/10/04 09:47:42;;;;;;;1999.90;999.90;;;;;;;17.11;69.04;100977.31;5045471;28;20064;-96
2023/10/04 09:50:23;;;;;;;1999.90;999.90;;;;;;;17.33;68.50;100979.75;5041953;28;20067;-88
2023/10/04 09:52:52;;;;;;;1999.90;999.90;;;;;;;16.91;68.98;100979.84;5043301;28;20606;-88
2023/10/04 09:55:20;;;;;;;1999.90;999.90;;;;;;;16.69;70.38;100967.22;5042011;28;20488;-88
2023/10/04 09:57:47;;;;;;;1999.90;999.90;;;;;;;16.58;70.27;100971.06;5041747;28;20044;-85
2023/10/04 10:00:17;;;;;;;1999.90;999.90;;;;;;;16.76;70.14;100975.16;5036969;28;20033;-85
2023/10/04 10:02:54;;;;;;;1999.90;999.90;;;;;;;16.91;69.17;100979.84;5027236;28;20032;-85
2023/10/04 10:05:28;;;;;;;1999.90;999.90;;;;;;;16.76;69.12;100979.88;5046570;28;20854;-86
2023/10/04 10:07:57;;;;;;;1999.90;999.90;;;;;;;17.05;69.02;100973.75;5041436;28;20084;-86
2023/10/04 10:10:24;;;;;;;1999.90;999.90;;;;;;;16.96;68.64;100975.44;5046311;28;20123;-87
2023/10/04 10:12:51;;;;;;;1999.90;999.90;;;;;;;17.04;68.41;100975.66;5045181;28;20533;-86
2023/10/04 10:15:18;;;;;;;1999.90;999.90;;;;;;;17.07;68.34;100977.06;5044143;28;20041;-86
2023/10/04 10:17:46;;;;;;;1999.90;999.90;;;;;;;17.47;67.43;100968.94;5038777;28;20064;-86
2023/10/04 10:20:12;;;;;;;1999.90;999.90;;;;;;;17.28;67.64;100974.28;5045369;28;20045;-86
2023/10/04 10:22:59;;;;;;;1999.90;999.90;;;;;;;17.48;67.47;100967.84;5042169;28;20156;-86
2023/10/04 10:25:32;;;;;;;1999.90;999.90;;;;;;;17.35;67.49;100974.78;5045284;28;20037;-87
2023/10/04 10:27:58;;;;;;;1999.90;999.90;;;;;;;17.28;67.01;100954.97;5042793;28;20037;-86
2023/10/04 10:30:30;;;;;;;1999.90;999.90;;;;;;;17.22;66.83;100958.84;5043633;28;20029;-87
2023/10/04 10:32:56;;;;;;;1999.90;999.90;;;;;;;17.00;67.19;100963.56;5044144;28;20043;-87
2023/10/04 10:35:48;;;;;;;1999.90;999.90;;;;;;;17.15;66.44;100968.25;5039583;28;20025;-87
2023/10/04 10:38:43;;;;;;;1999.90;999.90;;;;;;;16.95;66.48;100962.75;5040799;28;20120;-87
2023/10/04 10:41:29;;;;;;;1999.90;999.90;;;;;;;16.97;66.04;100966.06;5042691;28;20123;-87
2023/10/04 10:44:24;;;;;;;1999.90;999.90;;;;;;;17.05;65.74;100968.25;5038173;28;20036;-86
2023/10/04 10:47:15;;;;;;;1999.90;999.90;;;;;;;17.02;65.86;100963.31;5035816;28;20040;-87
2023/10/04 10:49:41;;;;;;;1999.90;999.90;;;;;;;17.65;64.42;100946.53;5038767;28;20037;-86
2023/10/04 10:52:09;;;;;;;1999.90;999.90;;;;;;;17.61;64.45;100944.34;5017861;28;20507;-87
2023/10/04 10:54:36;;;;;;;1999.90;999.90;;;;;;;17.47;64.66;100955.16;5042198;28;20211;-86
2023/10/04 10:57:02;;;;;;;1999.90;999.90;;;;;;;17.56;64.48;100943.53;5024462;28;20207;-87
2023/10/04 10:59:29;;;;;;;1766.88;414.52;;;;;;;17.42;64.77;100948.84;5043059;28;20056;-87
2023/10/04 11:01:54;;;;;;;1999.90;999.90;;;;;;;17.47;64.87;100935.06;5027583;28;20036;-94
2023/10/04 11:04:20;;;;;;;1999.90;715.75;;;;;;;17.28;65.08;100938.44;5021777;28;20286;-94
2023/10/04 11:06:45;;;;;;;1999.90;620.63;;;;;;;17.41;64.09;100938.94;5040703;28;20678;-94
2023/10/04 11:09:11;;;;;;;1999.90;999.90;;;;;;;17.57;63.45;100945.22;5036760;28;20270;-94
2023/10/04 11:11:37;;;;;;;1999.90;999.90;;;;;;;17.52;63.46;100951.56;5022668;28;20064;-95
2023/10/04 11:14:06;;;;;;;1999.90;999.90;;;;;;;17.48;63.28;100956.00;5043842;28;20056;-95
2023/10/04 11:16:33;;;;;;;1999.90;999.90;;;;;;;17.49;63.33;100963.97;5042946;28;20044;-95
2023/10/04 11:19:00;;;;;;;1999.90;999.90;;;;;;;17.77;62.72;100955.31;5044055;28;20032;-94
2023/10/04 11:21:26;;;;;;;1999.90;999.90;;;;;;;17.71;62.87;100959.19;5040767;28;20042;-94
2023/10/04 11:23:51;;;;;;;1999.90;999.90;;;;;;;17.76;62.34;100959.16;5026995;28;20041;-94
2023/10/04 11:26:17;;;;;;;1999.90;999.90;;;;;;;17.84;62.12;100954.97;5045043;28;20048;-95
2023/10/04 11:28:46;;;;;;;1999.90;999.90;;;;;;;18.17;61.60;100946.22;5041142;28;20036;-94